Main page
Satellite images 15-day forecastsClimateMarine weather Cyclones Lightning AirportsFAQ Newsletter About
Weather : Europe Africa North America South America Asia Australia-Oceania Others
Languages Contact

Dortmund, Germany

latitude: 51-31N, longitude: 007-37E, elevation: 127 m


METAR: EDLW 011550Z 26005KT 220V280 CAVOK 19/12 Q1027 RMK ATIS Z
TAF: EDLW 011100Z 0112/0212 25006KT 9999 SCT030 BECMG 0115/0118 VRB03KT TEMPO 0123/0204 2000 BR TEMPO 0204/0210 18005KT

Time: 18:15 (16:15 UTC)

Current weather observation

The report was made 25 minutes ago, at 15:50 UTC  
Wind 05 kt from the West, varying between Southwest and West
Temperature 19°C
Humidity 64%
Pressure 1027 hPa
Visibility 10 km or more
no clouds below 1500 m and no cumulonimbus

Change units

Forecast

The report was made 05 hours and 15 minutes ago, at 11:00 UTC  
Forecast valid from 01 at 12 UTC to 02 at 12 UTC
Wind 06 kt from the West/Southwest
Visibility 10 km or more
Scattered clouds at a height of 3000 ft
Becoming
from 01 at 15 UTC to 01 at 18 UTC
Wind 03 kt from variable directions
Temporary
from 01 at 23 UTC to 02 at 04 UTC
Visibility 2000 m
mist
Temporary
from 02 at 04 UTC to 02 at 10 UTC
Wind 05 kt from the South
The information on this site is subject to a disclaimer
Weather : Europe Africa North America South America Asia Australia-Oceania Others
Satellite images 15-day forecastsClimateMarine weather Cyclones Lightning AirportsFAQ Languages Contact Newsletter About